createdAt,value
2023-01-22T00:00:57.770Z,5.6
2023-01-22T00:02:14.851Z,5.5
2023-01-22T00:03:31.815Z,5.4
2023-01-22T00:04:48.883Z,5.3
2023-01-22T00:06:05.833Z,5.2
2023-01-22T00:07:22.795Z,5.1
2023-01-22T00:08:39.828Z,5
2023-01-22T00:09:56.787Z,5
2023-01-22T00:11:13.831Z,4.9
2023-01-22T00:12:30.792Z,4.8
2023-01-22T00:13:47.891Z,4.9
2023-01-22T00:15:04.803Z,5
2023-01-22T00:16:21.879Z,5.1
2023-01-22T00:17:38.799Z,5.2
2023-01-22T00:18:57.019Z,5.3
2023-01-22T00:20:13.828Z,5.4
2023-01-22T00:21:30.825Z,5.5
2023-01-22T00:22:47.798Z,5.4
2023-01-22T00:24:04.825Z,5.3
2023-01-22T00:25:21.867Z,5.3
2023-01-22T00:26:38.823Z,5.3
2023-01-22T00:27:55.848Z,5.3
2023-01-22T00:29:12.817Z,5.3
2023-01-22T00:30:29.882Z,5.4
2023-01-22T00:31:46.902Z,5.6
2023-01-22T00:33:03.821Z,5.5
2023-01-22T00:34:20.824Z,5.5
2023-01-22T00:35:37.876Z,5.4
2023-01-22T00:36:56.045Z,5.2
2023-01-22T00:38:11.817Z,5.1
2023-01-22T00:39:28.832Z,5.1
2023-01-22T00:40:45.831Z,5
2023-01-22T00:42:02.863Z,5
2023-01-22T00:43:19.830Z,5
2023-01-22T00:44:36.822Z,5.1
2023-01-22T00:45:53.847Z,5.2
2023-01-22T00:47:10.896Z,5.3
2023-01-22T00:48:27.908Z,5.5
2023-01-22T00:49:44.849Z,5.7
2023-01-22T00:51:02.139Z,5.7
2023-01-22T00:52:19.867Z,5.8
2023-01-22T00:53:36.923Z,5.8
2023-01-22T00:54:53.984Z,5.9
2023-01-22T00:56:10.872Z,5.9
2023-01-22T00:57:27.881Z,5.8
2023-01-22T00:58:44.853Z,5.7
2023-01-22T01:00:01.887Z,5.5
2023-01-22T01:01:18.879Z,5.4
2023-01-22T01:02:35.859Z,5.3
2023-01-22T01:03:53.014Z,5.2
2023-01-22T01:05:09.924Z,5.2
2023-01-22T01:06:26.853Z,5.1
2023-01-22T01:07:43.867Z,5
2023-01-22T01:09:00.859Z,5.1
2023-01-22T01:10:18.192Z,5.1
2023-01-22T01:11:34.926Z,5.2
2023-01-22T01:12:51.994Z,5.3
2023-01-22T01:14:08.875Z,5.3
2023-01-22T01:15:25.872Z,5.3
2023-01-22T01:16:42.909Z,5.4
2023-01-22T01:17:59.875Z,5.5
2023-01-22T01:19:16.883Z,5.6
2023-01-22T01:20:33.950Z,5.7
2023-01-22T01:21:50.929Z,5.8
2023-01-22T01:23:07.874Z,5.9
2023-01-22T01:24:25.069Z,6
2023-01-22T01:25:41.921Z,6
2023-01-22T01:26:58.916Z,5.9
2023-01-22T01:28:16.033Z,5.9
2023-01-22T01:29:32.917Z,5.9
2023-01-22T01:30:49.958Z,5.9
2023-01-22T01:32:06.908Z,6
2023-01-22T01:33:23.910Z,5.9
2023-01-22T01:34:40.902Z,5.9
2023-01-22T01:35:57.927Z,5.9
2023-01-22T01:37:14.990Z,5.9
2023-01-22T01:38:31.902Z,5.9
2023-01-22T01:39:48.937Z,5.9
2023-01-22T01:41:05.920Z,6
2023-01-22T01:42:22.911Z,6.1
2023-01-22T01:43:40.029Z,6.1
2023-01-22T01:44:56.949Z,6.1
2023-01-22T01:46:13.964Z,6.1
2023-01-22T01:47:30.920Z,6.1
2023-01-22T01:48:47.911Z,6.2
2023-01-22T01:50:04.943Z,6
2023-01-22T01:51:21.970Z,5.7
2023-01-22T01:52:38.949Z,5.6
2023-01-22T01:53:55.924Z,5.4
2023-01-22T01:55:12.918Z,5.2
2023-01-22T01:56:29.924Z,5
2023-01-22T01:57:46.958Z,5
2023-01-22T01:59:04.051Z,4.9
2023-01-22T02:00:20.958Z,4.9
2023-01-22T02:01:37.966Z,5
2023-01-22T02:02:54.931Z,5
2023-01-22T02:04:11.966Z,5.2
2023-01-22T02:05:28.929Z,5.3
2023-01-22T02:06:45.948Z,5.3
2023-01-22T02:08:02.981Z,5.3
2023-01-22T02:09:19.949Z,5.5
2023-01-22T02:10:37.022Z,5.6
2023-01-22T02:11:53.965Z,5.6
2023-01-22T02:13:11.010Z,5.6
2023-01-22T02:14:28.095Z,5.6
2023-01-22T02:15:44.956Z,5.5
2023-01-22T02:17:01.955Z,5.6
2023-01-22T02:18:19.005Z,5.6
2023-01-22T02:19:35.959Z,5.7
2023-01-22T02:20:52.962Z,5.9
2023-01-22T02:22:09.958Z,6
2023-01-22T02:23:26.991Z,6
2023-01-22T02:24:43.984Z,6
2023-01-22T02:26:01.043Z,6
2023-01-22T02:27:17.972Z,6
2023-01-22T02:28:35.043Z,6.1
2023-01-22T02:29:52.112Z,6
2023-01-22T02:31:09.066Z,6.1
2023-01-22T02:32:25.971Z,6.2
2023-01-22T02:33:43.043Z,6.2
2023-01-22T02:35:00.291Z,6.2
2023-01-22T02:36:17.030Z,6.2
2023-01-22T02:37:33.980Z,6.2
2023-01-22T02:38:51.014Z,6.2
2023-01-22T02:40:08.005Z,6.3
2023-01-22T02:41:24.994Z,6.3
2023-01-22T02:42:41.979Z,6.3
2023-01-22T02:43:59.009Z,5.9
2023-01-22T02:45:16.141Z,5.7
2023-01-22T02:46:33.007Z,5.5
2023-01-22T02:47:50.268Z,5.3
2023-01-22T02:49:07.028Z,5.2
2023-01-22T02:50:24.029Z,5.1
2023-01-22T02:51:41.025Z,5.2
2023-01-22T02:52:58.006Z,5.3
2023-01-22T02:54:15.022Z,5.5
2023-01-22T02:55:32.037Z,5.6
2023-01-22T02:56:49.044Z,5.8
2023-01-22T02:58:05.999Z,5.9
2023-01-22T02:59:23.273Z,6
2023-01-22T03:00:40.187Z,6.1
2023-01-22T03:01:57.068Z,6.2
2023-01-22T03:03:14.016Z,6.3
2023-01-22T03:04:31.043Z,6.3
2023-01-22T03:05:48.054Z,6.3
2023-01-22T03:07:05.054Z,6.4
2023-01-22T03:08:22.011Z,6.4
2023-01-22T03:09:39.034Z,6.5
2023-01-22T03:10:56.026Z,6.5
2023-01-22T03:12:13.075Z,6.5
2023-01-22T03:13:30.037Z,6.5
2023-01-22T03:14:47.053Z,6.5
2023-01-22T03:16:04.202Z,6.5
2023-01-22T03:17:21.047Z,6.6
2023-01-22T03:18:38.028Z,6.6
2023-01-22T03:19:55.073Z,6.5
2023-01-22T03:21:12.027Z,6.6
2023-01-22T03:22:29.061Z,6.5
2023-01-22T03:23:46.043Z,6.6
2023-01-22T03:25:03.144Z,6.5
2023-01-22T03:26:20.082Z,6.5
2023-01-22T03:27:37.063Z,6.5
2023-01-22T03:28:54.043Z,6.6
2023-01-22T03:30:11.070Z,6.6
2023-01-22T03:31:28.309Z,6.5
2023-01-22T03:32:45.056Z,6.5
2023-01-22T03:34:02.048Z,6.5
2023-01-22T03:35:19.088Z,6.6
2023-01-22T03:36:36.160Z,6.6
2023-01-22T03:37:53.115Z,6.6
2023-01-22T03:39:10.053Z,6.6
2023-01-22T03:40:27.139Z,6.5
2023-01-22T03:41:44.060Z,6.5
2023-01-22T03:43:01.067Z,6.5
2023-01-22T03:44:18.067Z,6.5
2023-01-22T03:45:35.170Z,6.5
2023-01-22T03:46:52.175Z,6.6
2023-01-22T03:48:09.071Z,6.5
2023-01-22T03:49:26.102Z,6.5
2023-01-22T03:50:43.138Z,6.5
2023-01-22T03:52:00.097Z,6.3
2023-01-22T03:53:17.085Z,6.2
2023-01-22T03:54:34.082Z,6
2023-01-22T03:55:51.099Z,5.7
2023-01-22T03:57:08.114Z,5.6
2023-01-22T03:58:25.188Z,5.4
2023-01-22T03:59:42.103Z,5.3
2023-01-22T04:00:59.126Z,5.4
2023-01-22T04:02:16.231Z,5.6
2023-01-22T04:03:33.096Z,5.7
2023-01-22T04:04:50.160Z,5.9
2023-01-22T04:06:08.494Z,5.9
2023-01-22T04:07:26.110Z,6
2023-01-22T04:08:43.097Z,6.1
2023-01-22T04:10:00.124Z,6.2
2023-01-22T04:11:17.185Z,6.3
2023-01-22T04:12:34.088Z,6.3
2023-01-22T04:13:51.165Z,6.3
2023-01-22T04:15:08.098Z,6.3
2023-01-22T04:16:25.192Z,6.2
2023-01-22T04:17:42.235Z,6
2023-01-22T04:18:59.110Z,6
2023-01-22T04:20:16.241Z,5.9
2023-01-22T04:21:33.208Z,5.8
2023-01-22T04:22:50.161Z,5.8
2023-01-22T04:24:07.143Z,5.8
2023-01-22T04:25:24.105Z,5.8
2023-01-22T04:26:41.122Z,5.9
2023-01-22T04:27:58.172Z,6
2023-01-22T04:29:15.131Z,6.1
2023-01-22T04:30:32.213Z,6.2
2023-01-22T04:31:49.195Z,6.2
2023-01-22T04:33:06.287Z,6.2
2023-01-22T04:34:23.123Z,6.2
2023-01-22T04:35:40.171Z,6.1
2023-01-22T04:36:57.134Z,6.1
2023-01-22T04:38:14.142Z,6.1
2023-01-22T04:39:31.127Z,6.2
2023-01-22T04:40:48.164Z,6.2
2023-01-22T04:42:05.140Z,6.2
2023-01-22T04:43:22.131Z,6.2
2023-01-22T04:44:39.144Z,6.2
2023-01-22T04:45:56.273Z,6.1
2023-01-22T04:47:13.165Z,6
2023-01-22T04:48:30.288Z,5.9
2023-01-22T04:49:47.334Z,5.7
2023-01-22T04:51:04.219Z,5.5
2023-01-22T04:52:21.152Z,5.4
2023-01-22T04:53:38.182Z,5.3
2023-01-22T04:54:55.228Z,5.2
2023-01-22T04:56:12.180Z,5.2
2023-01-22T04:57:29.155Z,5.2
2023-01-22T04:58:46.159Z,5.3
2023-01-22T05:00:03.191Z,5.1
2023-01-22T05:01:20.223Z,5
2023-01-22T05:02:37.199Z,5.1
2023-01-22T05:03:54.341Z,5.2
2023-01-22T05:05:11.196Z,5.3
2023-01-22T05:06:28.331Z,5.4
2023-01-22T05:07:45.178Z,5.5
2023-01-22T05:09:02.206Z,5.4
2023-01-22T05:10:19.535Z,5.5
2023-01-22T05:11:36.196Z,5.6
2023-01-22T05:12:53.174Z,5.5
2023-01-22T05:14:10.591Z,5.5
2023-01-22T05:15:27.277Z,5.5
2023-01-22T05:16:44.229Z,5.4
2023-01-22T05:18:01.184Z,5.3
2023-01-22T05:19:18.305Z,5.4
2023-01-22T05:20:35.221Z,5.3
2023-01-22T05:21:52.237Z,5.3
2023-01-22T05:23:09.190Z,5.4
2023-01-22T05:24:26.201Z,5.4
2023-01-22T05:25:43.197Z,5.4
2023-01-22T05:27:00.222Z,5.5
2023-01-22T05:28:17.201Z,5.5
2023-01-22T05:29:34.257Z,5.4
2023-01-22T05:30:51.307Z,5.4
2023-01-22T05:32:08.249Z,5.3
2023-01-22T05:33:25.857Z,5.4
2023-01-22T05:34:43.324Z,5.3
2023-01-22T05:36:00.214Z,5.2
2023-01-22T05:37:17.215Z,5.2
2023-01-22T05:38:34.252Z,5.3
2023-01-22T05:39:51.205Z,5.2
2023-01-22T05:41:08.236Z,5.2
2023-01-22T05:42:25.237Z,5.4
2023-01-22T05:43:42.228Z,5.6
2023-01-22T05:44:59.224Z,5.7
2023-01-22T05:46:16.266Z,5.9
2023-01-22T05:47:33.221Z,6
2023-01-22T05:48:50.226Z,6
2023-01-22T05:50:07.346Z,5.9
2023-01-22T05:51:24.296Z,5.7
2023-01-22T05:52:41.221Z,5.7
2023-01-22T05:53:58.239Z,5.6
2023-01-22T05:55:15.272Z,5.5
2023-01-22T05:56:32.302Z,5.4
2023-01-22T05:57:49.237Z,5.4
2023-01-22T05:59:06.232Z,5.4
2023-01-22T06:00:23.291Z,5.4
2023-01-22T06:01:40.256Z,5.3
2023-01-22T06:02:57.355Z,5.3
2023-01-22T06:04:14.241Z,5.4
2023-01-22T06:05:31.388Z,5.6
2023-01-22T06:06:48.277Z,5.8
2023-01-22T06:08:05.245Z,6
2023-01-22T06:09:22.250Z,6.1
2023-01-22T06:10:39.243Z,6.2
2023-01-22T06:11:56.314Z,6.3
2023-01-22T06:13:13.248Z,6.4
2023-01-22T06:14:30.254Z,6.4
2023-01-22T06:15:47.279Z,6.5
2023-01-22T06:17:04.294Z,6.5
2023-01-22T06:18:21.306Z,6.5
2023-01-22T06:19:38.267Z,6.5
2023-01-22T06:20:55.784Z,6.5
2023-01-22T06:22:12.291Z,6.6
2023-01-22T06:23:29.261Z,6.6
2023-01-22T06:24:46.280Z,6.6
2023-01-22T06:26:03.328Z,6.7
2023-01-22T06:27:20.318Z,6.7
2023-01-22T06:28:37.287Z,6.7
2023-01-22T06:29:54.277Z,6.6
2023-01-22T06:31:11.375Z,6.5
2023-01-22T06:32:28.312Z,6.4
2023-01-22T06:33:45.281Z,6.4
2023-01-22T06:35:02.281Z,6.4
2023-01-22T06:36:19.408Z,6.4
2023-01-22T06:37:36.399Z,6.4
2023-01-22T06:38:53.401Z,6.4
2023-01-22T06:40:10.284Z,6.4
2023-01-22T06:41:27.299Z,6.3
2023-01-22T06:42:44.304Z,6.2
2023-01-22T06:44:01.322Z,6.1
2023-01-22T06:45:18.287Z,6.1
2023-01-22T06:46:35.342Z,5.9
2023-01-22T06:47:52.292Z,5.8
2023-01-22T06:49:09.334Z,5.8
2023-01-22T06:50:26.317Z,5.8
2023-01-22T06:51:43.498Z,5.8
2023-01-22T06:53:00.329Z,5.8
2023-01-22T06:54:17.311Z,5.8
2023-01-22T06:55:34.324Z,5.8
2023-01-22T06:56:51.347Z,5.8
2023-01-22T06:58:08.338Z,5.9
2023-01-22T06:59:25.311Z,5.9
2023-01-22T07:00:42.316Z,6
2023-01-22T07:01:59.427Z,5.9
2023-01-22T07:03:16.364Z,5.8
2023-01-22T07:04:33.334Z,5.6
2023-01-22T07:05:50.335Z,5.4
2023-01-22T07:07:07.444Z,5.2
2023-01-22T07:08:24.350Z,5.1
2023-01-22T07:09:41.322Z,5.1
2023-01-22T07:10:58.369Z,5
2023-01-22T07:12:15.339Z,5
2023-01-22T07:13:32.761Z,5
2023-01-22T07:14:49.338Z,5.1
2023-01-22T07:16:06.410Z,5.3
2023-01-22T07:17:23.496Z,5.5
2023-01-22T07:18:40.377Z,5.6
2023-01-22T07:19:57.356Z,5.8
2023-01-22T07:21:14.340Z,5.9
2023-01-22T07:22:31.467Z,6
2023-01-22T07:23:48.364Z,6.1
2023-01-22T07:25:05.333Z,6.3
2023-01-22T07:26:22.345Z,6.2
2023-01-22T07:27:39.499Z,6.2
2023-01-22T07:28:56.361Z,6.2
2023-01-22T07:30:13.377Z,6.2
2023-01-22T07:31:30.392Z,6.3
2023-01-22T07:32:47.374Z,6.4
2023-01-22T07:34:04.363Z,6.4
2023-01-22T07:35:21.360Z,6.4
2023-01-22T07:36:38.363Z,6.4
2023-01-22T07:37:55.507Z,6.4
2023-01-22T07:39:12.396Z,6.4
2023-01-22T07:40:29.379Z,6.5
2023-01-22T07:41:46.381Z,6.5
2023-01-22T07:43:03.439Z,6.6
2023-01-22T07:44:20.421Z,6.6
2023-01-22T07:45:37.383Z,6.5
2023-01-22T07:46:54.590Z,6.5
2023-01-22T07:48:11.396Z,6.6
2023-01-22T07:49:28.378Z,6.6
2023-01-22T07:50:45.383Z,6.6
2023-01-22T07:52:02.418Z,6.5
2023-01-22T07:53:19.562Z,6.5
2023-01-22T07:54:36.477Z,6.6
2023-01-22T07:55:53.386Z,6.5
2023-01-22T07:57:10.398Z,6.5
2023-01-22T07:58:27.659Z,6.4
2023-01-22T07:59:44.402Z,6.5
2023-01-22T08:01:01.478Z,6.5
2023-01-22T08:02:18.431Z,6.5
2023-01-22T08:03:35.416Z,6.5
2023-01-22T08:04:52.394Z,6.5
2023-01-22T08:06:09.398Z,6.5
2023-01-22T08:07:27.824Z,6.2
2023-01-22T08:08:43.545Z,6
2023-01-22T08:10:00.457Z,6
2023-01-22T08:11:17.418Z,6
2023-01-22T08:12:34.411Z,5.8
2023-01-22T08:13:51.457Z,5.7
2023-01-22T08:15:08.443Z,5.5
2023-01-22T08:16:25.651Z,5.5
2023-01-22T08:17:42.423Z,5.4
2023-01-22T08:18:59.455Z,5.3
2023-01-22T08:20:16.541Z,5.3
2023-01-22T08:21:33.460Z,5.3
2023-01-22T08:22:50.416Z,5.4
2023-01-22T08:24:07.563Z,5.5
2023-01-22T08:25:24.439Z,5.7
2023-01-22T08:26:41.427Z,5.9
2023-01-22T08:27:58.490Z,6.1
2023-01-22T08:29:15.436Z,6.3
2023-01-22T08:30:33.859Z,6.4
2023-01-22T08:31:49.541Z,6.6
2023-01-22T08:33:06.470Z,6.8
2023-01-22T08:34:23.457Z,6.9
2023-01-22T08:35:40.538Z,6.9
2023-01-22T08:36:57.445Z,6.9
2023-01-22T08:38:14.502Z,7
2023-01-22T08:39:31.582Z,7.1
2023-01-22T08:40:48.442Z,7
2023-01-22T08:42:05.449Z,7
2023-01-22T08:43:22.441Z,7
2023-01-22T08:44:39.490Z,7
2023-01-22T08:45:56.483Z,7
2023-01-22T08:47:13.459Z,7.1
2023-01-22T08:48:30.465Z,7.1
2023-01-22T08:49:47.480Z,7.1
2023-01-22T08:51:04.478Z,7.1
2023-01-22T08:52:21.465Z,7.1
2023-01-22T08:53:38.461Z,7
2023-01-22T08:54:55.621Z,7
2023-01-22T08:56:12.502Z,7
2023-01-22T08:57:29.494Z,7.1
2023-01-22T08:58:46.472Z,7.1
2023-01-22T09:00:03.478Z,7.1
2023-01-22T09:01:20.642Z,7
2023-01-22T09:02:37.486Z,7
2023-01-22T09:03:57.198Z,7
2023-01-22T09:05:14.550Z,7.1
2023-01-22T09:06:31.483Z,7.2
2023-01-22T09:07:48.513Z,7.2
2023-01-22T09:09:05.516Z,7.3
2023-01-22T09:10:22.926Z,7.3
2023-01-22T09:11:39.606Z,7.4
2023-01-22T09:12:56.546Z,7.3
2023-01-22T09:14:13.517Z,7.3
2023-01-22T09:15:30.544Z,7.4
2023-01-22T09:16:47.542Z,7.4
2023-01-22T09:18:04.513Z,7.4
2023-01-22T09:19:21.507Z,7.4
2023-01-22T09:20:38.548Z,7.4
2023-01-22T09:21:55.493Z,7.3
2023-01-22T09:23:14.776Z,7
2023-01-22T09:24:29.498Z,6.7
2023-01-22T09:25:46.735Z,6.6
2023-01-22T09:27:03.504Z,6.3
2023-01-22T09:28:20.562Z,6.2
2023-01-22T09:29:37.526Z,6.2
2023-01-22T09:30:54.607Z,6.2
2023-01-22T09:32:11.525Z,6.2
2023-01-22T09:33:28.539Z,6.3
2023-01-22T09:34:45.520Z,6.5
2023-01-22T09:36:02.541Z,6.7
2023-01-22T09:37:19.598Z,6.8
2023-01-22T09:38:36.527Z,6.8
2023-01-22T09:39:53.527Z,6.8
2023-01-22T09:41:10.680Z,7
2023-01-22T09:42:27.566Z,7
2023-01-22T09:43:44.541Z,7.1
2023-01-22T09:45:01.546Z,7.2
2023-01-22T09:46:18.614Z,7.2
2023-01-22T09:47:35.611Z,7.3
2023-01-22T09:48:52.531Z,7.3
2023-01-22T09:50:09.568Z,7.3
2023-01-22T09:51:26.621Z,7.4
2023-01-22T09:52:43.566Z,7.4
2023-01-22T09:54:00.538Z,7.4
2023-01-22T09:55:17.587Z,7.3
2023-01-22T09:56:34.659Z,7.3
2023-01-22T09:57:51.537Z,7.3
2023-01-22T09:59:08.550Z,7.3
2023-01-22T10:00:25.572Z,7.3
2023-01-22T10:01:42.610Z,7.4
2023-01-22T10:02:59.592Z,7.4
2023-01-22T10:04:16.541Z,7.5
2023-01-22T10:05:33.562Z,7.5
2023-01-22T10:06:50.571Z,7.5
2023-01-22T10:08:07.558Z,7.4
2023-01-22T10:09:24.557Z,7.4
2023-01-22T10:10:41.585Z,7.4
2023-01-22T10:11:58.727Z,7.4
2023-01-22T10:13:15.553Z,7.5
2023-01-22T10:14:32.560Z,7.5
2023-01-22T10:15:49.668Z,7.5
2023-01-22T10:17:06.572Z,7.6
2023-01-22T10:18:23.989Z,7.5
2023-01-22T10:19:41.566Z,7.5
2023-01-22T10:20:58.832Z,7.5
2023-01-22T10:22:15.562Z,7.5
2023-01-22T10:23:32.583Z,7.5
2023-01-22T10:24:49.595Z,7.3
2023-01-22T10:26:06.625Z,7
2023-01-22T10:27:23.709Z,6.8
2023-01-22T10:28:40.634Z,6.5
2023-01-22T10:29:57.673Z,6.3
2023-01-22T10:31:14.704Z,6.2
2023-01-22T10:32:31.588Z,6.1
2023-01-22T10:33:48.594Z,6
2023-01-22T10:35:05.657Z,6
2023-01-22T10:36:22.596Z,5.9
2023-01-22T10:37:39.599Z,5.8
2023-01-22T10:38:56.601Z,5.9
2023-01-22T10:40:13.669Z,6
2023-01-22T10:41:30.632Z,6.1
2023-01-22T10:42:47.783Z,6.2
2023-01-22T10:44:04.605Z,6.3
2023-01-22T10:45:21.768Z,6.3
2023-01-22T10:46:38.658Z,6.4
2023-01-22T10:47:55.619Z,6.4
2023-01-22T10:49:12.717Z,6.5
2023-01-22T10:50:30.640Z,6.5
2023-01-22T10:51:47.642Z,6.6
2023-01-22T10:53:04.686Z,6.7
2023-01-22T10:54:21.631Z,6.6
2023-01-22T10:55:38.614Z,6.6
2023-01-22T10:56:55.647Z,6.4
2023-01-22T10:58:12.762Z,6.3
2023-01-22T10:59:29.634Z,6.3
2023-01-22T11:00:52.124Z,6.3
2023-01-22T11:02:04.426Z,6.3
2023-01-22T11:03:22.376Z,6.3
2023-01-22T11:04:39.639Z,6.3
2023-01-22T11:05:56.681Z,6.3
2023-01-22T11:07:13.646Z,6.3
2023-01-22T11:08:30.696Z,6.4
2023-01-22T11:09:47.642Z,6.3
2023-01-22T11:11:04.640Z,6.3
2023-01-22T11:12:21.669Z,6.3
2023-01-22T11:13:38.760Z,6.2
2023-01-22T11:14:55.643Z,6.2
2023-01-22T11:16:12.720Z,6
2023-01-22T11:17:29.744Z,5.8
2023-01-22T11:18:46.662Z,5.6
2023-01-22T11:20:03.713Z,5.5
2023-01-22T11:21:20.693Z,5.4
2023-01-22T11:22:37.696Z,5.3
2023-01-22T11:23:54.664Z,5.1
2023-01-22T11:25:11.650Z,5
2023-01-22T11:26:28.681Z,5
2023-01-22T11:27:45.738Z,5.1
2023-01-22T11:29:02.796Z,5.2
2023-01-22T11:30:21.267Z,5.3
2023-01-22T11:31:36.821Z,5.3
2023-01-22T11:32:53.705Z,5.4
2023-01-22T11:34:10.669Z,5.7
2023-01-22T11:35:27.707Z,5.9
2023-01-22T11:36:44.725Z,6
2023-01-22T11:38:01.731Z,6
2023-01-22T11:39:18.725Z,5.7
2023-01-22T11:40:35.681Z,5.5
2023-01-22T11:41:52.673Z,5.4
2023-01-22T11:43:09.724Z,5.4
2023-01-22T11:44:26.820Z,5.4
2023-01-22T11:45:43.692Z,5.7
2023-01-22T11:47:00.683Z,6
2023-01-22T11:48:17.714Z,6.2
2023-01-22T11:49:34.728Z,6.3
2023-01-22T11:50:51.757Z,6.4
2023-01-22T11:52:08.697Z,6.4
2023-01-22T11:53:25.696Z,6.5
2023-01-22T11:54:42.769Z,6.7
2023-01-22T11:55:59.703Z,6.9
2023-01-22T11:57:16.708Z,7
2023-01-22T11:58:33.707Z,7.1
2023-01-22T11:59:50.930Z,7.3
2023-01-22T12:01:07.732Z,7.4
2023-01-22T12:02:24.761Z,7.5
2023-01-22T12:03:41.747Z,7.7
2023-01-22T12:04:58.758Z,7.8
2023-01-22T12:06:15.726Z,7.9
2023-01-22T12:07:32.708Z,8
2023-01-22T12:08:49.727Z,8.1
2023-01-22T12:10:06.756Z,8.2
2023-01-22T12:11:23.831Z,8.2
2023-01-22T12:12:40.724Z,8.2
2023-01-22T12:13:57.769Z,8.2
2023-01-22T12:15:14.881Z,8.3
2023-01-22T12:16:31.770Z,8.3
2023-01-22T12:17:48.754Z,8.4
2023-01-22T12:19:05.771Z,8.4
2023-01-22T12:20:22.827Z,8.4
2023-01-22T12:21:40.512Z,8.3
2023-01-22T12:22:56.769Z,8.3
2023-01-22T12:24:13.776Z,8.2
2023-01-22T12:25:30.739Z,8.2
2023-01-22T12:26:47.803Z,8.1
2023-01-22T12:28:04.757Z,8.1
2023-01-22T12:29:21.749Z,8
2023-01-22T12:30:38.888Z,7.9
2023-01-22T12:31:55.887Z,7.9
2023-01-22T12:33:12.754Z,7.8
2023-01-22T12:34:29.777Z,7.8
2023-01-22T12:35:46.895Z,7.8
2023-01-22T12:37:03.840Z,7.8
2023-01-22T12:38:20.764Z,7.8
2023-01-22T12:39:37.770Z,7.7
2023-01-22T12:40:54.774Z,7.6
2023-01-22T12:42:11.793Z,7.5
2023-01-22T12:43:28.769Z,7.3
2023-01-22T12:44:45.768Z,7.1
2023-01-22T12:46:02.910Z,6.8
2023-01-22T12:47:19.817Z,6.8
2023-01-22T12:48:36.775Z,6.8
2023-01-22T12:49:53.778Z,6.7
2023-01-22T12:51:10.797Z,6.7
2023-01-22T12:52:27.807Z,6.7
2023-01-22T12:53:44.772Z,6.7
2023-01-22T12:55:01.787Z,6.7
2023-01-22T12:56:18.810Z,6.9
2023-01-22T12:57:35.809Z,7
2023-01-22T12:58:52.766Z,7.2
2023-01-22T13:00:09.843Z,7.4
2023-01-22T13:01:26.914Z,7.5
2023-01-22T13:02:43.881Z,7.7
2023-01-22T13:04:00.858Z,7.9
2023-01-22T13:05:17.796Z,7.9
2023-01-22T13:06:34.824Z,8
2023-01-22T13:07:51.817Z,8
2023-01-22T13:09:08.853Z,8
2023-01-22T13:10:25.806Z,7.9
2023-01-22T13:11:42.804Z,7.8
2023-01-22T13:12:59.813Z,7.7
2023-01-22T13:14:16.905Z,7.7
2023-01-22T13:15:33.858Z,7.7
2023-01-22T13:16:50.920Z,7.8
2023-01-22T13:18:08.305Z,7.8
2023-01-22T13:19:24.813Z,7.8
2023-01-22T13:20:41.844Z,7.7
2023-01-22T13:21:58.848Z,7.6
2023-01-22T13:23:16.274Z,7.5
2023-01-22T13:24:32.844Z,7.5
2023-01-22T13:25:49.816Z,7.5
2023-01-22T13:27:06.808Z,7.5
2023-01-22T13:28:23.894Z,7.5
2023-01-22T13:29:40.828Z,7.5
2023-01-22T13:30:57.949Z,7.5
2023-01-22T13:32:14.944Z,7.4
2023-01-22T13:33:31.849Z,7.4
2023-01-22T13:34:48.829Z,7.3
2023-01-22T13:36:05.828Z,7.4
2023-01-22T13:37:22.831Z,7.4
2023-01-22T13:38:39.848Z,7.3
2023-01-22T13:39:56.866Z,7.3
2023-01-22T13:41:13.831Z,7.3
2023-01-22T13:42:30.879Z,7.3
2023-01-22T13:43:47.832Z,7.3
2023-01-22T13:45:04.909Z,7.3
2023-01-22T13:46:21.919Z,7.3
2023-01-22T13:47:39.086Z,7.3
2023-01-22T13:48:55.869Z,7.4
2023-01-22T13:50:12.851Z,7.4
2023-01-22T13:51:29.938Z,7.3
2023-01-22T13:52:46.954Z,7.2
2023-01-22T13:54:03.877Z,6.9
2023-01-22T13:55:20.909Z,6.7
2023-01-22T13:56:37.870Z,6.5
2023-01-22T13:57:54.936Z,6.2
2023-01-22T13:59:11.867Z,6
2023-01-22T14:00:28.929Z,6
2023-01-22T14:01:45.908Z,5.9
2023-01-22T14:03:03.003Z,5.9
2023-01-22T14:04:19.889Z,5.8
2023-01-22T14:05:36.865Z,5.8
2023-01-22T14:06:53.868Z,5.9
2023-01-22T14:08:10.925Z,5.9
2023-01-22T14:09:27.866Z,5.9
2023-01-22T14:10:44.884Z,6
2023-01-22T14:12:01.901Z,6.1
2023-01-22T14:13:18.941Z,6.1
2023-01-22T14:14:35.893Z,6.3
2023-01-22T14:15:52.889Z,6.4
2023-01-22T14:17:09.885Z,6.5
2023-01-22T14:18:27.043Z,6.6
2023-01-22T14:19:43.906Z,6.6
2023-01-22T14:21:00.888Z,6.5
2023-01-22T14:22:17.893Z,6.5
2023-01-22T14:23:35.280Z,6.4
2023-01-22T14:24:51.882Z,6.4
2023-01-22T14:26:08.915Z,6.3
2023-01-22T14:27:25.901Z,6.2
2023-01-22T14:28:42.923Z,6.2
2023-01-22T14:29:59.977Z,6.1
2023-01-22T14:31:16.939Z,6
2023-01-22T14:32:33.897Z,6
2023-01-22T14:33:51.129Z,6.1
2023-01-22T14:35:07.971Z,6
2023-01-22T14:36:24.899Z,6.1
2023-01-22T14:37:41.935Z,6.2
2023-01-22T14:38:58.972Z,6.3
2023-01-22T14:40:16.077Z,6.4
2023-01-22T14:41:32.911Z,6.5
2023-01-22T14:42:49.957Z,6.6
2023-01-22T14:44:06.915Z,6.6
2023-01-22T14:45:23.983Z,6.6
2023-01-22T14:46:40.975Z,6.5
2023-01-22T14:47:57.968Z,6.5
2023-01-22T14:49:15.080Z,6.4
2023-01-22T14:50:31.961Z,6.4
2023-01-22T14:51:49.165Z,6.4
2023-01-22T14:53:05.963Z,6.5
2023-01-22T14:54:22.929Z,6.4
2023-01-22T14:55:39.927Z,6.4
2023-01-22T14:56:56.954Z,6.4
2023-01-22T14:58:13.954Z,6.5
2023-01-22T14:59:30.940Z,6.4
2023-01-22T15:00:48.007Z,6.2
2023-01-22T15:02:04.972Z,6.1
2023-01-22T15:03:21.969Z,5.9
2023-01-22T15:04:39.100Z,5.8
2023-01-22T15:05:55.964Z,5.8
2023-01-22T15:07:12.980Z,5.6
2023-01-22T15:08:30.140Z,5.5
2023-01-22T15:09:46.951Z,5.6
2023-01-22T15:11:04.214Z,5.7
2023-01-22T15:12:20.985Z,5.7
2023-01-22T15:13:38.016Z,5.8
2023-01-22T15:14:54.959Z,5.9
2023-01-22T15:16:12.010Z,6
2023-01-22T15:17:28.971Z,6
2023-01-22T15:18:45.990Z,6
2023-01-22T15:20:03.141Z,6
2023-01-22T15:21:20.002Z,6.1
2023-01-22T15:22:37.002Z,6.1
2023-01-22T15:23:53.968Z,6.1
2023-01-22T15:25:10.983Z,6.1
2023-01-22T15:26:28.002Z,6.1
2023-01-22T15:27:44.971Z,6.1
2023-01-22T15:29:01.968Z,6.2
2023-01-22T15:30:19.374Z,6.2
2023-01-22T15:31:36.092Z,6.2
2023-01-22T15:32:52.995Z,6.2
2023-01-22T15:34:09.976Z,6.2
2023-01-22T15:35:27.125Z,6.3
2023-01-22T15:36:44.056Z,6.3
2023-01-22T15:38:01.006Z,6.4
2023-01-22T15:39:18.151Z,6.5
2023-01-22T15:40:36.995Z,6.4
2023-01-22T15:41:54.072Z,6.4
2023-01-22T15:43:10.997Z,6.4
2023-01-22T15:44:28.016Z,6.4
2023-01-22T15:45:45.047Z,6.3
2023-01-22T15:47:02.142Z,6.3
2023-01-22T15:48:19.364Z,6.3
2023-01-22T15:49:37.110Z,6.3
2023-01-22T15:50:54.180Z,6.3
2023-01-22T15:52:11.074Z,6.3
2023-01-22T15:53:28.053Z,6.4
2023-01-22T15:54:45.004Z,6.3
2023-01-22T15:56:02.008Z,6.3
2023-01-22T15:57:19.025Z,6.4
2023-01-22T15:58:36.129Z,6.2
2023-01-22T15:59:53.087Z,6.1
2023-01-22T16:01:10.101Z,5.9
2023-01-22T16:02:27.169Z,5.8
2023-01-22T16:03:44.033Z,5.6
2023-01-22T16:05:01.024Z,5.6
2023-01-22T16:06:18.141Z,5.7
2023-01-22T16:07:35.067Z,5.8
2023-01-22T16:08:52.063Z,5.9
2023-01-22T16:10:09.033Z,5.9
2023-01-22T16:11:26.040Z,5.9
2023-01-22T16:12:43.050Z,6
2023-01-22T16:14:00.094Z,6.1
2023-01-22T16:15:17.043Z,6.2
2023-01-22T16:16:34.120Z,6.2
2023-01-22T16:17:51.044Z,6.3
2023-01-22T16:19:08.105Z,6.3
2023-01-22T16:20:25.036Z,6.4
2023-01-22T16:21:42.676Z,6.4
2023-01-22T16:22:59.084Z,6.5
2023-01-22T16:24:32.633Z,6.4
2023-01-22T16:25:50.072Z,6.4
2023-01-22T16:27:07.093Z,6.4
2023-01-22T16:28:24.064Z,6.4
2023-01-22T16:29:41.434Z,6.5
2023-01-22T16:31:00.536Z,6.5
2023-01-22T16:32:22.086Z,6.6
2023-01-22T16:33:39.048Z,6.6
2023-01-22T16:34:56.092Z,6.6
2023-01-22T16:36:13.097Z,6.7
2023-01-22T16:37:30.237Z,6.7
2023-01-22T16:38:47.073Z,6.7
2023-01-22T16:40:05.086Z,6.7
2023-01-22T16:41:24.820Z,6.6
2023-01-22T16:42:39.057Z,6.5
2023-01-22T16:43:56.061Z,6.5
2023-01-22T16:45:13.113Z,6.6
2023-01-22T16:46:30.110Z,6.5
2023-01-22T16:47:47.335Z,6.3
2023-01-22T16:49:04.092Z,6.1
2023-01-22T16:50:21.274Z,5.9
2023-01-22T16:51:38.080Z,5.8
2023-01-22T16:52:55.214Z,5.6
2023-01-22T16:54:12.123Z,5.5
2023-01-22T16:55:29.163Z,5.5
2023-01-22T16:56:46.134Z,5.5
2023-01-22T16:58:03.207Z,5.7
2023-01-22T16:59:20.152Z,5.8
2023-01-22T17:00:37.226Z,5.9
2023-01-22T17:01:54.124Z,6
2023-01-22T17:03:11.153Z,6.1
2023-01-22T17:04:28.111Z,6.2
2023-01-22T17:05:45.161Z,6.2
2023-01-22T17:07:02.677Z,6.2
2023-01-22T17:08:19.248Z,6.2
2023-01-22T17:09:36.220Z,6.2
2023-01-22T17:10:53.141Z,6.2
2023-01-22T17:12:10.111Z,6.2
2023-01-22T17:13:27.371Z,6.2
2023-01-22T17:14:44.131Z,6.2
2023-01-22T17:16:01.171Z,6.2
2023-01-22T17:17:18.112Z,6.2
2023-01-22T17:18:35.187Z,6.2
2023-01-22T17:19:52.139Z,6.2
2023-01-22T17:21:09.115Z,6.2
2023-01-22T17:22:26.135Z,6.2
2023-01-22T17:23:44.030Z,6.2
2023-01-22T17:25:01.318Z,6.2
2023-01-22T17:26:18.151Z,6.2
2023-01-22T17:27:35.146Z,6.2
2023-01-22T17:28:52.209Z,6.2
2023-01-22T17:30:09.134Z,6.2
2023-01-22T17:31:26.265Z,6.1
2023-01-22T17:32:43.127Z,6.2
2023-01-22T17:34:00.186Z,6.2
2023-01-22T17:35:17.538Z,6.2
2023-01-22T17:36:34.136Z,6.2
2023-01-22T17:37:51.134Z,6.3
2023-01-22T17:39:08.288Z,6.3
2023-01-22T17:40:25.234Z,6.3
2023-01-22T17:41:42.153Z,6.3
2023-01-22T17:42:59.159Z,6.3
2023-01-22T17:44:16.172Z,6.2
2023-01-22T17:45:33.385Z,6.1
2023-01-22T17:46:51.154Z,6.1
2023-01-22T17:48:08.195Z,6.2